Sligo Airport - TAF
(Terminal Area Forecast)


Issued at 15:21 UTC on Mon. 8-Aug-22


--- METARS(SA) ---
METAR EISG(SLIGO) 081500Z 30007KT CAVOK 21/14 Q1028 =


--- TAFS() ---
TAF EISG(SLIGO) 081400Z 0815/0824 VRB03KT 9999 SCT040 BECMG
0815/0816 32010KT =


--- SIGMETS(WS) ---
IE - No VALID SIGMETS/Warnings FOR THIS AREA

--- SIGMETS Volcanic(WV) ---
IE - No VALID SIGMETS/Warnings FOR THIS AREA

--- SIGMETS(WS) ---
UK - No VALID SIGMETS/Warnings FOR THIS AREA

Sligo Airport - METARs

Latest METARs for Sligo and Donegal Airports - updated every 30 mins